createdAt,value
2018-04-30T00:01:48.859Z,98233.18
2018-04-30T00:04:18.479Z,98242.66
2018-04-30T00:06:48.012Z,98251.73
2018-04-30T00:09:17.568Z,98255.87
2018-04-30T00:11:46.134Z,98255.05
2018-04-30T00:14:16.060Z,98263.09
2018-04-30T00:16:45.369Z,98271.23
2018-04-30T00:19:15.164Z,98272.16
2018-04-30T00:21:43.899Z,98271.33
2018-04-30T00:24:13.190Z,98273.19
2018-04-30T00:26:42.374Z,98274.72
2018-04-30T00:29:11.653Z,98274.00
2018-04-30T00:31:41.419Z,98273.69
2018-04-30T00:34:10.762Z,98272.48
2018-04-30T00:36:39.577Z,98272.58
2018-04-30T00:39:08.612Z,98267.73
2018-04-30T00:41:37.537Z,98271.02
2018-04-30T00:44:06.317Z,98264.43
2018-04-30T00:46:35.613Z,98273.39
2018-04-30T00:49:04.440Z,98275.25
2018-04-30T00:51:33.957Z,98273.17
2018-04-30T00:54:03.272Z,98267.51
2018-04-30T00:56:32.565Z,98268.77
2018-04-30T00:59:02.060Z,98279.98
2018-04-30T01:01:31.461Z,98286.37
2018-04-30T01:04:01.428Z,98287.91
2018-04-30T01:06:30.912Z,98286.16
2018-04-30T01:09:00.861Z,98287.09
2018-04-30T01:11:30.788Z,98287.19
2018-04-30T01:14:00.340Z,98292.84
2018-04-30T01:16:29.832Z,98295.63
2018-04-30T01:18:58.950Z,98295.81
2018-04-30T01:21:28.180Z,98299.30
2018-04-30T01:23:57.115Z,98298.06
2018-04-30T01:26:26.573Z,98299.64
2018-04-30T01:28:55.889Z,98307.45
2018-04-30T01:31:25.448Z,98310.03
2018-04-30T01:33:54.154Z,98308.80
2018-04-30T01:36:23.413Z,98321.77
2018-04-30T01:38:52.165Z,98324.95
2018-04-30T01:41:21.796Z,98330.83
2018-04-30T01:43:50.553Z,98328.25
2018-04-30T01:46:20.270Z,98332.05
2018-04-30T01:48:49.581Z,98338.45
2018-04-30T01:51:18.065Z,98348.25
2018-04-30T01:53:48.499Z,98360.30
2018-04-30T01:56:18.531Z,98364.83
2018-04-30T01:58:47.389Z,98364.00
2018-04-30T02:01:17.123Z,98366.26
2018-04-30T02:03:46.251Z,98369.35
2018-04-30T02:06:16.013Z,98377.39
2018-04-30T02:08:45.641Z,98381.41
2018-04-30T02:11:14.911Z,98388.70
2018-04-30T02:13:44.060Z,98389.31
2018-04-30T02:16:13.844Z,98393.42
2018-04-30T02:18:44.040Z,98401.56
2018-04-30T02:21:13.350Z,98401.66
2018-04-30T02:23:42.511Z,98394.13
2018-04-30T02:26:11.792Z,98398.15
2018-04-30T02:28:41.075Z,98395.98
2018-04-30T02:31:10.544Z,98400.00
2018-04-30T02:33:40.888Z,98400.41
2018-04-30T02:36:10.077Z,98402.27
2018-04-30T02:38:39.553Z,98393.84
2018-04-30T02:41:08.754Z,98399.71
2018-04-30T02:43:38.435Z,98398.89
2018-04-30T02:46:07.734Z,98388.59
2018-04-30T02:48:37.763Z,98387.66
2018-04-30T02:51:06.729Z,98392.20
2018-04-30T02:53:35.891Z,98394.05
2018-04-30T02:56:04.766Z,98395.48
2018-04-30T02:58:34.025Z,98394.65
2018-04-30T03:01:03.107Z,98398.77
2018-04-30T03:03:32.581Z,98391.24
2018-04-30T03:06:02.479Z,98396.19
2018-04-30T03:08:32.283Z,98388.25
2018-04-30T03:11:02.053Z,98389.27
2018-04-30T03:13:31.448Z,98391.95
2018-04-30T03:16:01.165Z,98389.27
2018-04-30T03:18:30.755Z,98382.16
2018-04-30T03:21:01.044Z,98385.35
2018-04-30T03:23:30.044Z,98381.34
2018-04-30T03:25:59.350Z,98373.84
2018-04-30T03:28:28.829Z,98366.33
2018-04-30T03:30:58.133Z,98372.19
2018-04-30T03:33:27.259Z,98373.02
2018-04-30T03:35:56.649Z,98369.92
2018-04-30T03:40:59.995Z,98369.10
2018-04-30T03:43:29.115Z,98378.56
2018-04-30T03:45:59.706Z,98372.80
2018-04-30T03:48:29.104Z,98378.98
2018-04-30T03:50:58.557Z,98381.66
2018-04-30T03:53:27.596Z,98378.56
2018-04-30T03:55:56.330Z,98372.39
2018-04-30T03:58:25.477Z,98370.53
2018-04-30T04:01:06.451Z,98370.20
2018-04-30T04:03:47.160Z,98365.67
2018-04-30T04:09:17.654Z,98363.31
2018-04-30T04:11:55.423Z,98364.23
2018-04-30T04:14:24.351Z,98361.97
2018-04-30T04:16:53.388Z,98371.24
2018-04-30T04:19:22.843Z,98371.25
2018-04-30T04:21:52.055Z,98363.80
2018-04-30T04:24:21.529Z,98363.29
2018-04-30T04:26:51.333Z,98359.08
2018-04-30T04:29:20.910Z,98360.73
2018-04-30T04:31:49.568Z,98365.07
2018-04-30T04:34:18.840Z,98365.38
2018-04-30T04:36:48.109Z,98368.16
2018-04-30T04:39:17.472Z,98370.11
2018-04-30T04:41:48.644Z,98372.78
2018-04-30T04:44:17.890Z,98379.06
2018-04-30T04:46:47.820Z,98372.37
2018-04-30T04:49:16.585Z,98376.38
2018-04-30T04:51:45.108Z,98375.88
2018-04-30T04:54:13.935Z,98376.80
2018-04-30T04:56:42.955Z,98382.66
2018-04-30T04:59:13.621Z,98386.58
2018-04-30T05:01:42.571Z,98384.83
2018-04-30T05:04:12.046Z,98380.81
2018-04-30T05:06:41.912Z,98380.81
2018-04-30T05:09:11.267Z,98380.81
2018-04-30T05:11:40.564Z,98377.21
2018-04-30T05:14:10.256Z,98379.38
2018-04-30T05:16:40.625Z,98383.70
2018-04-30T05:19:10.033Z,98382.47
2018-04-30T05:21:39.855Z,98376.47
2018-04-30T05:24:09.781Z,98380.20
2018-04-30T05:26:38.624Z,98368.86
2018-04-30T05:29:07.554Z,98369.79
2018-04-30T05:31:39.255Z,98373.80
2018-04-30T05:34:08.629Z,98366.28
2018-04-30T05:36:37.725Z,98362.48
2018-04-30T05:39:10.186Z,98358.98
2018-04-30T05:41:39.433Z,98356.63
2018-04-30T05:44:09.529Z,98357.25
2018-04-30T05:46:39.224Z,98355.82
2018-04-30T05:49:08.826Z,98349.13
2018-04-30T05:51:37.987Z,98344.61
2018-04-30T05:54:07.750Z,98342.05
2018-04-30T05:56:37.084Z,98334.66
2018-04-30T05:59:08.343Z,98338.98
2018-04-30T06:01:37.664Z,98334.88
2018-04-30T06:04:06.938Z,98328.09
2018-04-30T06:06:35.772Z,98326.52
2018-04-30T06:09:05.158Z,98315.20
2018-04-30T06:11:34.505Z,98310.36
2018-04-30T06:14:04.391Z,98313.87
2018-04-30T06:16:34.396Z,98305.84
2018-04-30T06:19:04.066Z,98306.25
2018-04-30T06:21:33.674Z,98302.23
2018-04-30T06:24:03.541Z,98299.46
2018-04-30T06:26:33.873Z,98294.11
2018-04-30T06:29:03.575Z,98288.34
2018-04-30T06:31:32.899Z,98289.69
2018-04-30T06:34:04.493Z,98286.49
2018-04-30T06:36:34.550Z,98283.41
2018-04-30T06:39:04.499Z,98278.34
2018-04-30T06:41:33.778Z,98275.25
2018-04-30T06:44:03.137Z,98266.71
2018-04-30T06:46:31.969Z,98257.66
2018-04-30T06:49:01.444Z,98255.30
2018-04-30T06:51:30.757Z,98256.03
2018-04-30T06:54:00.534Z,98258.60
2018-04-30T06:56:30.058Z,98253.47
2018-04-30T06:58:59.632Z,98248.81
2018-04-30T07:01:28.553Z,98245.11
2018-04-30T07:03:57.532Z,98241.51
2018-04-30T07:06:27.142Z,98235.64
2018-04-30T07:08:56.699Z,98234.30
2018-04-30T07:11:25.854Z,98229.78
2018-04-30T07:13:54.747Z,98225.25
2018-04-30T07:16:23.604Z,98227.41
2018-04-30T07:18:53.485Z,98226.90
2018-04-30T07:21:22.861Z,98225.67
2018-04-30T07:23:52.085Z,98224.34
2018-04-30T07:26:21.468Z,98215.07
2018-04-30T07:28:51.500Z,98210.64
2018-04-30T07:31:21.021Z,98205.70
2018-04-30T07:33:51.061Z,98206.94
2018-04-30T07:36:19.968Z,98203.84
2018-04-30T07:38:49.689Z,98205.88
2018-04-30T07:41:18.824Z,98196.00
2018-04-30T07:43:48.575Z,98194.15
2018-04-30T07:46:17.958Z,98193.53
2018-04-30T07:48:48.029Z,98191.69
2018-04-30T07:51:17.615Z,98184.89
2018-04-30T07:53:47.823Z,98176.45
2018-04-30T07:56:17.365Z,98169.66
2018-04-30T07:58:47.316Z,98169.66
2018-04-30T08:01:16.496Z,98160.19
2018-04-30T08:03:46.428Z,98152.98
2018-04-30T08:06:15.754Z,98152.88
2018-04-30T08:08:44.778Z,98151.54
2018-04-30T08:11:14.730Z,98146.88
2018-04-30T08:13:44.709Z,98137.92
2018-04-30T08:16:14.139Z,98132.56
2018-04-30T08:18:43.718Z,98132.05
2018-04-30T08:21:13.583Z,98126.18
2018-04-30T08:23:43.258Z,98127.42
2018-04-30T08:26:13.010Z,98122.38
2018-04-30T08:28:42.494Z,98119.70
2018-04-30T08:31:12.164Z,98119.28
2018-04-30T08:33:41.625Z,98105.70
2018-04-30T08:36:10.808Z,98108.79
2018-04-30T08:38:41.180Z,98104.95
2018-04-30T08:41:10.513Z,98097.64
2018-04-30T08:43:39.606Z,98097.54
2018-04-30T08:46:09.096Z,98097.95
2018-04-30T08:48:38.771Z,98088.48
2018-04-30T08:51:07.852Z,98086.22
2018-04-30T08:53:37.099Z,98086.11
2018-04-30T08:56:06.635Z,98082.41
2018-04-30T08:58:35.678Z,98079.63
2018-04-30T09:01:05.074Z,98076.84
2018-04-30T09:03:33.988Z,98075.69
2018-04-30T09:06:03.912Z,98072.08
2018-04-30T09:08:33.510Z,98063.95
2018-04-30T09:11:02.419Z,98059.42
2018-04-30T09:13:32.038Z,98053.44
2018-04-30T09:16:01.613Z,98054.68
2018-04-30T09:18:31.925Z,98053.14
2018-04-30T09:21:00.684Z,98050.77
2018-04-30T09:23:30.470Z,98048.09
2018-04-30T09:26:00.029Z,98042.22
2018-04-30T09:28:30.051Z,98037.27
2018-04-30T09:30:59.249Z,98030.99
2018-04-30T09:33:29.006Z,98028.21
2018-04-30T09:35:58.733Z,98019.56
2018-04-30T09:38:28.110Z,98029.14
2018-04-30T09:40:57.362Z,98016.98
2018-04-30T09:43:32.405Z,98023.58
2018-04-30T09:46:01.946Z,98027.77
2018-04-30T09:48:31.676Z,98020.45
2018-04-30T09:51:00.876Z,98017.67
2018-04-30T09:53:30.803Z,98017.06
2018-04-30T09:55:59.953Z,98007.06
2018-04-30T09:58:29.896Z,98002.53
2018-04-30T10:00:59.613Z,98004.97
2018-04-30T10:03:28.807Z,97998.07
2018-04-30T10:05:57.439Z,97998.79
2018-04-30T10:08:26.921Z,97989.31
2018-04-30T10:10:56.364Z,97988.28
2018-04-30T10:13:25.702Z,97990.34
2018-04-30T10:15:55.315Z,97983.54
2018-04-30T10:18:23.892Z,97979.38
2018-04-30T10:20:53.537Z,97977.02
2018-04-30T10:23:23.098Z,97974.54
2018-04-30T10:25:52.585Z,97969.08
2018-04-30T10:28:22.018Z,97970.31
2018-04-30T10:30:52.069Z,97960.01
2018-04-30T10:33:21.567Z,97964.34
2018-04-30T10:35:50.786Z,97960.48
2018-04-30T10:38:20.260Z,97958.53
2018-04-30T10:40:49.246Z,97953.99
2018-04-30T10:43:18.411Z,97948.42
2018-04-30T10:45:47.570Z,97944.20
2018-04-30T10:48:17.284Z,97941.69
2018-04-30T10:50:47.358Z,97935.30
2018-04-30T10:53:16.585Z,97925.41
2018-04-30T10:55:46.677Z,97931.48
2018-04-30T10:58:17.207Z,97926.32
2018-04-30T11:00:46.778Z,97934.67
2018-04-30T11:03:16.778Z,97924.77
2018-04-30T11:05:46.612Z,97926.39
2018-04-30T11:08:16.555Z,97931.12
2018-04-30T11:10:45.866Z,97931.95
2018-04-30T11:13:15.288Z,97930.61
2018-04-30T11:15:44.534Z,97938.95
2018-04-30T11:18:14.341Z,97938.02
2018-04-30T11:20:43.813Z,97936.99
2018-04-30T11:23:13.244Z,97937.30
2018-04-30T11:25:43.082Z,97939.39
2018-04-30T11:28:12.239Z,97936.88
2018-04-30T11:30:42.257Z,97944.70
2018-04-30T11:33:11.598Z,97947.39
2018-04-30T11:35:41.263Z,97943.27
2018-04-30T11:38:10.324Z,97944.39
2018-04-30T11:40:39.490Z,97946.04
2018-04-30T11:43:09.401Z,97948.62
2018-04-30T11:45:39.136Z,97951.16
2018-04-30T11:48:08.678Z,97952.81
2018-04-30T11:50:37.956Z,97955.80
2018-04-30T11:53:07.712Z,97955.69
2018-04-30T11:55:37.171Z,97957.85
2018-04-30T11:58:06.970Z,97969.40
2018-04-30T12:00:36.683Z,97960.84
2018-04-30T12:03:05.557Z,97974.14
2018-04-30T12:05:35.508Z,97972.28
2018-04-30T12:08:05.124Z,97974.14
2018-04-30T12:10:34.797Z,97976.82
2018-04-30T12:13:04.714Z,97988.37
2018-04-30T12:15:33.761Z,98008.47
2018-04-30T12:18:03.353Z,97997.23
2018-04-30T12:20:33.185Z,98003.52
2018-04-30T12:23:02.763Z,98002.59
2018-04-30T12:25:33.049Z,98014.97
2018-04-30T12:28:02.474Z,98018.03
2018-04-30T12:30:32.251Z,98028.65
2018-04-30T12:33:01.969Z,98035.24
2018-04-30T12:35:30.842Z,98037.00
2018-04-30T12:38:00.130Z,98033.39
2018-04-30T12:40:29.631Z,98044.94
2018-04-30T12:42:58.514Z,98044.83
2018-04-30T12:45:27.864Z,98056.07
2018-04-30T12:47:56.923Z,98059.27
2018-04-30T12:50:26.662Z,98056.90
2018-04-30T12:52:56.136Z,98060.92
2018-04-30T12:55:25.666Z,98064.11
2018-04-30T12:57:55.861Z,98073.91
2018-04-30T13:00:26.607Z,98069.48
2018-04-30T13:02:56.287Z,98079.69
2018-04-30T13:05:25.652Z,98079.69
2018-04-30T13:07:55.381Z,98091.64
2018-04-30T13:10:24.279Z,98090.72
2018-04-30T13:12:53.666Z,98096.19
2018-04-30T13:15:24.518Z,98101.95
2018-04-30T13:17:53.957Z,98116.19
2018-04-30T13:20:23.288Z,98113.41
2018-04-30T13:22:52.922Z,98124.84
2018-04-30T13:25:21.964Z,98125.27
2018-04-30T13:27:50.871Z,98137.74
2018-04-30T13:30:19.933Z,98135.58
2018-04-30T13:32:49.096Z,98146.81
2018-04-30T13:35:18.465Z,98156.61
2018-04-30T13:37:48.066Z,98172.59
2018-04-30T13:40:17.544Z,98183.70
2018-04-30T13:42:46.868Z,98202.47
2018-04-30T13:45:15.487Z,98207.84
2018-04-30T13:47:45.322Z,98209.59
2018-04-30T13:50:14.840Z,98218.05
2018-04-30T13:52:44.198Z,98223.92
2018-04-30T13:55:13.011Z,98230.77
2018-04-30T13:57:41.864Z,98236.54
2018-04-30T14:00:11.460Z,98231.04
2018-04-30T14:02:41.145Z,98227.43
2018-04-30T14:05:10.598Z,98237.23
2018-04-30T14:07:40.053Z,98248.78
2018-04-30T14:10:08.836Z,98248.37
2018-04-30T14:12:38.136Z,98257.23
2018-04-30T14:15:07.141Z,98270.55
2018-04-30T14:17:36.988Z,98306.33
2018-04-30T14:20:06.811Z,98464.54
2018-04-30T14:22:36.422Z,98520.03
2018-04-30T14:25:05.910Z,98522.20
2018-04-30T14:27:35.408Z,98506.20
2018-04-30T14:30:04.655Z,98516.84
2018-04-30T14:32:34.838Z,98520.76
2018-04-30T14:35:04.353Z,98525.61
2018-04-30T14:37:33.748Z,98528.39
2018-04-30T14:40:03.294Z,98543.14
2018-04-30T14:42:32.911Z,98535.30
2018-04-30T14:45:02.189Z,98514.37
2018-04-30T14:47:30.801Z,98517.88
2018-04-30T14:49:59.427Z,98513.84
2018-04-30T14:52:29.229Z,98511.06
2018-04-30T14:54:59.010Z,98491.97
2018-04-30T14:57:27.700Z,98486.20
2018-04-30T14:59:56.974Z,98479.48
2018-04-30T15:02:26.141Z,98478.36
2018-04-30T15:04:55.191Z,98488.48
2018-04-30T15:07:24.771Z,98491.37
2018-04-30T15:09:53.561Z,98500.66
2018-04-30T15:12:22.670Z,98500.66
2018-04-30T15:14:52.546Z,98491.14
2018-04-30T15:17:22.341Z,98486.61
2018-04-30T15:19:52.748Z,98490.53
2018-04-30T15:22:21.372Z,98491.05
2018-04-30T15:24:51.309Z,98494.14
2018-04-30T15:27:20.033Z,98502.19
2018-04-30T15:29:49.072Z,98506.20
2018-04-30T15:32:18.987Z,98503.11
2018-04-30T15:34:47.816Z,98494.97
2018-04-30T15:37:17.145Z,98500.43
2018-04-30T15:39:46.011Z,98505.80
2018-04-30T15:42:15.150Z,98506.20
2018-04-30T15:44:43.954Z,98510.64
2018-04-30T15:47:13.503Z,98503.42
2018-04-30T15:49:43.274Z,98491.77
2018-04-30T15:52:12.285Z,98489.92
2018-04-30T15:54:42.054Z,98489.41
2018-04-30T15:57:11.560Z,98501.16
2018-04-30T15:59:40.998Z,98502.50
2018-04-30T16:02:09.743Z,98501.16
2018-04-30T16:04:38.874Z,98485.89
2018-04-30T16:07:07.679Z,98476.52
2018-04-30T16:09:36.770Z,98482.29
2018-04-30T16:12:06.189Z,98487.65
2018-04-30T16:14:35.401Z,98489.09
2018-04-30T16:17:04.642Z,98486.41
2018-04-30T16:19:34.039Z,98489.41
2018-04-30T16:22:03.448Z,98484.55
2018-04-30T16:24:32.544Z,98483.73
2018-04-30T16:27:02.056Z,98476.52
2018-04-30T16:29:31.670Z,98484.97
2018-04-30T16:32:01.164Z,98484.97
2018-04-30T16:34:30.582Z,98480.02
2018-04-30T16:36:59.904Z,98483.53
2018-04-30T16:39:28.789Z,98477.75
2018-04-30T16:41:58.519Z,98478.16
2018-04-30T16:44:28.241Z,98480.02
2018-04-30T16:46:57.621Z,98475.48
2018-04-30T16:49:26.923Z,98471.05
2018-04-30T16:51:56.423Z,98469.19
2018-04-30T16:54:25.075Z,98470.13
2018-04-30T16:56:55.065Z,98462.48
2018-04-30T16:59:24.992Z,98461.66
2018-04-30T17:01:54.791Z,98454.95
2018-04-30T17:04:23.902Z,98445.98
2018-04-30T17:06:53.220Z,98434.74
2018-04-30T17:09:22.668Z,98434.43
2018-04-30T17:11:51.875Z,98433.09
2018-04-30T17:14:21.273Z,98438.04
2018-04-30T17:16:50.349Z,98434.12
2018-04-30T17:19:19.144Z,98430.41
2018-04-30T17:21:49.080Z,98430.41
2018-04-30T17:24:17.966Z,98423.29
2018-04-30T17:26:47.322Z,98412.56
2018-04-30T17:29:16.593Z,98412.05
2018-04-30T17:31:46.154Z,98400.50
2018-04-30T17:34:15.618Z,98404.52
2018-04-30T17:36:44.942Z,98392.45
2018-04-30T17:39:14.220Z,98391.52
2018-04-30T17:41:43.410Z,98389.77
2018-04-30T17:44:12.252Z,98392.04
2018-04-30T17:46:40.976Z,98396.98
2018-04-30T17:49:10.317Z,98396.58
2018-04-30T17:51:39.010Z,98404.20
2018-04-30T17:54:08.657Z,98407.72
2018-04-30T17:56:38.583Z,98409.57
2018-04-30T17:59:09.027Z,98414.52
2018-04-30T18:01:38.595Z,98419.37
2018-04-30T18:04:08.881Z,98423.08
2018-04-30T18:06:38.973Z,98406.58
2018-04-30T18:09:08.500Z,98386.98
2018-04-30T18:11:38.083Z,98387.91
2018-04-30T18:14:07.301Z,98398.12
2018-04-30T18:16:36.410Z,98403.06
2018-04-30T18:19:06.380Z,98404.82
2018-04-30T18:21:35.978Z,98397.19
2018-04-30T18:24:05.593Z,98400.80
2018-04-30T18:26:34.796Z,98399.77
2018-04-30T18:29:04.052Z,98390.48
2018-04-30T18:31:33.627Z,98379.86
2018-04-30T18:34:08.187Z,98381.33
2018-04-30T18:36:37.983Z,98377.83
2018-04-30T18:39:15.127Z,98377.41
2018-04-30T18:42:01.287Z,98367.61
2018-04-30T18:44:31.971Z,98359.57
2018-04-30T18:47:18.697Z,98355.23
2018-04-30T18:50:04.809Z,98349.14
2018-04-30T18:52:51.046Z,98339.86
2018-04-30T19:01:10.494Z,98338.52
2018-04-30T19:03:43.794Z,98341.31
2018-04-30T19:06:13.231Z,98345.55
2018-04-30T19:08:43.062Z,98356.07
2018-04-30T19:11:12.340Z,98362.67
2018-04-30T19:13:41.727Z,98366.56
2018-04-30T19:16:11.338Z,98366.88
2018-04-30T19:18:40.627Z,98360.59
2018-04-30T19:21:10.675Z,98348.01
2018-04-30T19:23:39.979Z,98346.56
2018-04-30T19:26:09.141Z,98344.91
2018-04-30T19:28:38.114Z,98341.92
2018-04-30T19:31:07.776Z,98341.92
2018-04-30T19:33:37.176Z,98340.71
2018-04-30T19:36:07.222Z,98332.77
2018-04-30T19:38:36.280Z,98324.41
2018-04-30T19:41:05.708Z,98331.73
2018-04-30T19:43:35.416Z,98326.78
2018-04-30T19:46:04.260Z,98329.46
2018-04-30T19:48:33.948Z,98333.59
2018-04-30T19:51:03.294Z,98334.00
2018-04-30T19:53:32.740Z,98327.81
2018-04-30T19:56:02.167Z,98318.22
2018-04-30T19:58:31.980Z,98322.14
2018-04-30T20:01:01.889Z,98319.14
2018-04-30T20:03:31.443Z,98317.48
2018-04-30T20:06:00.123Z,98323.27
2018-04-30T20:08:29.704Z,98318.41
2018-04-30T20:10:58.691Z,98313.88
2018-04-30T20:13:28.521Z,98318.14
2018-04-30T20:15:58.255Z,98325.25
2018-04-30T20:18:27.183Z,98326.17
2018-04-30T20:20:57.163Z,98329.38
2018-04-30T20:23:26.815Z,98323.19
2018-04-30T20:25:56.843Z,98328.65
2018-04-30T20:28:26.353Z,98327.82
2018-04-30T20:30:55.625Z,98323.80
2018-04-30T20:33:24.760Z,98323.48
2018-04-30T20:35:53.772Z,98325.75
2018-04-30T20:38:22.906Z,98334.31
2018-04-30T20:40:52.106Z,98358.53
2018-04-30T20:43:21.610Z,98380.39
2018-04-30T20:45:50.273Z,98404.94
2018-04-30T20:48:20.344Z,98403.49
2018-04-30T20:50:49.442Z,98390.50
2018-04-30T20:53:18.623Z,98375.25
2018-04-30T20:55:48.824Z,98354.83
2018-04-30T20:58:17.746Z,98346.37
2018-04-30T21:00:47.584Z,98350.80
2018-04-30T21:03:17.305Z,98361.63
2018-04-30T21:05:46.104Z,98383.08
2018-04-30T21:08:15.387Z,98390.39
2018-04-30T21:10:45.286Z,98389.70
2018-04-30T21:13:14.457Z,98384.33
2018-04-30T21:15:44.029Z,98377.28
2018-04-30T21:18:13.626Z,98378.72
2018-04-30T21:20:42.425Z,98392.74
2018-04-30T21:23:11.132Z,98405.22
2018-04-30T21:25:40.153Z,98403.88
2018-04-30T21:28:09.534Z,98398.93
2018-04-30T21:30:39.770Z,98397.69
2018-04-30T21:33:09.431Z,98397.59
2018-04-30T21:35:39.063Z,98390.06
2018-04-30T21:38:08.384Z,98395.52
2018-04-30T21:40:37.995Z,98399.95
2018-04-30T21:43:07.454Z,98398.30
2018-04-30T21:45:36.999Z,98405.31
2018-04-30T21:48:05.954Z,98393.77
2018-04-30T21:50:36.304Z,98400.16
2018-04-30T21:53:05.321Z,98405.52
2018-04-30T21:55:35.256Z,98405.20
2018-04-30T21:58:04.486Z,98398.50
2018-04-30T22:00:34.511Z,98404.50
2018-04-30T22:03:04.540Z,98410.80
2018-04-30T22:05:34.840Z,98405.94
2018-04-30T22:08:03.937Z,98396.66
2018-04-30T22:10:32.959Z,98393.16
2018-04-30T22:13:02.198Z,98414.19
2018-04-30T22:15:32.190Z,98429.84
2018-04-30T22:18:01.114Z,98423.25
2018-04-30T22:20:30.397Z,98430.36
2018-04-30T22:23:00.415Z,98421.08
2018-04-30T22:25:30.177Z,98418.09
2018-04-30T22:27:59.960Z,98433.34
2018-04-30T22:30:29.515Z,98438.28
2018-04-30T22:32:58.536Z,98433.34
2018-04-30T22:35:28.209Z,98425.40
2018-04-30T22:37:57.462Z,98431.72
2018-04-30T22:40:27.306Z,98444.16
2018-04-30T22:42:57.221Z,98450.47
2018-04-30T22:45:26.739Z,98444.90
2018-04-30T22:47:55.668Z,98449.02
2018-04-30T22:50:25.391Z,98446.13
2018-04-30T22:52:54.999Z,98445.61
2018-04-30T22:55:24.147Z,98450.66
2018-04-30T22:57:53.290Z,98464.66
2018-04-30T23:00:24.439Z,98453.94
2018-04-30T23:02:53.450Z,98451.49
2018-04-30T23:05:22.562Z,98453.76
2018-04-30T23:07:52.821Z,98465.09
2018-04-30T23:10:22.259Z,98466.52
2018-04-30T23:12:52.171Z,98482.09
2018-04-30T23:15:20.982Z,98477.66
2018-04-30T23:17:50.817Z,98479.61
2018-04-30T23:20:20.627Z,98483.11
2018-04-30T23:22:50.293Z,98490.33
2018-04-30T23:25:20.136Z,98487.23
2018-04-30T23:27:49.015Z,98494.95
2018-04-30T23:30:18.504Z,98513.81
2018-04-30T23:32:47.928Z,98515.66
2018-04-30T23:35:17.077Z,98515.37
2018-04-30T23:37:46.032Z,98524.84
2018-04-30T23:40:15.593Z,98525.88
2018-04-30T23:42:45.016Z,98538.02
2018-04-30T23:45:14.360Z,98541.12
2018-04-30T23:47:44.136Z,98551.42
2018-04-30T23:50:13.455Z,98550.59
2018-04-30T23:52:42.635Z,98568.52
2018-04-30T23:55:11.431Z,98577.99
2018-04-30T23:57:40.852Z,98589.73
